sensor_id;sensor_type;location;lat;lon;timestamp;P1;durP1;ratioP1;P2;durP2;ratioP2
43901;SDS011;29562;40.390;-3.706;2022-10-13T00:03:48;4.82;;;2.60;;
43901;SDS011;29562;40.390;-3.706;2022-10-13T00:13:50;6.82;;;2.95;;
43901;SDS011;29562;40.390;-3.706;2022-10-13T00:23:53;6.95;;;2.75;;
43901;SDS011;29562;40.390;-3.706;2022-10-13T00:33:58;5.88;;;2.80;;
43901;SDS011;29562;40.390;-3.706;2022-10-13T00:44:02;4.28;;;2.40;;
43901;SDS011;29562;40.390;-3.706;2022-10-13T00:54:04;7.03;;;3.00;;
43901;SDS011;29562;40.390;-3.706;2022-10-13T01:04:06;6.90;;;2.85;;
43901;SDS011;29562;40.390;-3.706;2022-10-13T01:44:40;6.93;;;2.65;;
43901;SDS011;29562;40.390;-3.706;2022-10-13T01:54:50;4.38;;;2.90;;
43901;SDS011;29562;40.390;-3.706;2022-10-13T02:15:06;11.30;;;6.80;;
43901;SDS011;29562;40.390;-3.706;2022-10-13T02:25:12;10.13;;;5.55;;
43901;SDS011;29562;40.390;-3.706;2022-10-13T02:35:20;8.00;;;4.17;;
43901;SDS011;29562;40.390;-3.706;2022-10-13T02:45:24;7.63;;;3.40;;
43901;SDS011;29562;40.390;-3.706;2022-10-13T03:05:35;6.57;;;3.00;;
43901;SDS011;29562;40.390;-3.706;2022-10-13T03:15:38;4.25;;;2.78;;
43901;SDS011;29562;40.390;-3.706;2022-10-13T03:25:40;3.80;;;2.40;;
43901;SDS011;29562;40.390;-3.706;2022-10-13T03:35:43;4.95;;;2.00;;
43901;SDS011;29562;40.390;-3.706;2022-10-13T03:45:55;5.30;;;2.10;;
43901;SDS011;29562;40.390;-3.706;2022-10-13T03:55:57;3.25;;;2.20;;
43901;SDS011;29562;40.390;-3.706;2022-10-13T04:06:01;3.17;;;2.03;;
43901;SDS011;29562;40.390;-3.706;2022-10-13T04:16:05;4.55;;;2.10;;
43901;SDS011;29562;40.390;-3.706;2022-10-13T04:26:13;3.03;;;2.05;;
43901;SDS011;29562;40.390;-3.706;2022-10-13T04:36:18;5.47;;;2.28;;
43901;SDS011;29562;40.390;-3.706;2022-10-13T04:46:22;5.57;;;2.42;;
43901;SDS011;29562;40.390;-3.706;2022-10-13T04:56:25;5.65;;;2.55;;
43901;SDS011;29562;40.390;-3.706;2022-10-13T05:06:29;3.70;;;2.50;;
43901;SDS011;29562;40.390;-3.706;2022-10-13T05:16:31;5.85;;;2.70;;
43901;SDS011;29562;40.390;-3.706;2022-10-13T05:26:34;6.13;;;2.75;;
43901;SDS011;29562;40.390;-3.706;2022-10-13T05:36:36;7.68;;;3.20;;
43901;SDS011;29562;40.390;-3.706;2022-10-13T05:46:37;8.07;;;3.33;;
43901;SDS011;29562;40.390;-3.706;2022-10-13T05:56:45;6.55;;;2.90;;
43901;SDS011;29562;40.390;-3.706;2022-10-13T06:06:48;7.43;;;2.75;;
43901;SDS011;29562;40.390;-3.706;2022-10-13T06:16:50;7.85;;;3.38;;
43901;SDS011;29562;40.390;-3.706;2022-10-13T06:26:52;8.07;;;3.13;;
43901;SDS011;29562;40.390;-3.706;2022-10-13T06:36:54;10.68;;;3.47;;
43901;SDS011;29562;40.390;-3.706;2022-10-13T06:46:56;8.55;;;3.08;;
43901;SDS011;29562;40.390;-3.706;2022-10-13T06:56:58;6.60;;;3.53;;
43901;SDS011;29562;40.390;-3.706;2022-10-13T07:07:00;6.70;;;3.17;;
43901;SDS011;29562;40.390;-3.706;2022-10-13T07:17:01;9.45;;;3.08;;
43901;SDS011;29562;40.390;-3.706;2022-10-13T07:27:03;9.18;;;3.40;;
43901;SDS011;29562;40.390;-3.706;2022-10-13T07:37:05;7.05;;;3.40;;
43901;SDS011;29562;40.390;-3.706;2022-10-13T07:47:07;7.05;;;4.38;;
43901;SDS011;29562;40.390;-3.706;2022-10-13T07:57:09;10.32;;;5.25;;
43901;SDS011;29562;40.390;-3.706;2022-10-13T08:07:10;14.35;;;5.97;;
43901;SDS011;29562;40.390;-3.706;2022-10-13T08:17:12;9.02;;;5.70;;
43901;SDS011;29562;40.390;-3.706;2022-10-13T08:27:16;12.30;;;6.80;;
43901;SDS011;29562;40.390;-3.706;2022-10-13T08:37:19;12.00;;;7.35;;
43901;SDS011;29562;40.390;-3.706;2022-10-13T08:57:38;13.43;;;6.28;;
43901;SDS011;29562;40.390;-3.706;2022-10-13T09:07:40;13.75;;;8.20;;
43901;SDS011;29562;40.390;-3.706;2022-10-13T09:17:43;15.30;;;6.70;;
43901;SDS011;29562;40.390;-3.706;2022-10-13T09:38:05;12.00;;;5.63;;
43901;SDS011;29562;40.390;-3.706;2022-10-13T09:48:24;11.05;;;5.32;;
43901;SDS011;29562;40.390;-3.706;2022-10-13T09:58:27;17.52;;;7.32;;
43901;SDS011;29562;40.390;-3.706;2022-10-13T10:08:52;2.97;;;1.70;;
43901;SDS011;29562;40.390;-3.706;2022-10-13T10:19:01;8.55;;;3.63;;
43901;SDS011;29562;40.390;-3.706;2022-10-13T10:29:06;10.27;;;4.47;;
43901;SDS011;29562;40.390;-3.706;2022-10-13T10:39:16;11.17;;;4.10;;
43901;SDS011;29562;40.390;-3.706;2022-10-13T10:49:30;9.57;;;4.15;;
43901;SDS011;29562;40.390;-3.706;2022-10-13T10:59:45;9.55;;;4.32;;
43901;SDS011;29562;40.390;-3.706;2022-10-13T11:19:52;7.85;;;3.65;;
43901;SDS011;29562;40.390;-3.706;2022-10-13T11:29:55;9.98;;;4.43;;
43901;SDS011;29562;40.390;-3.706;2022-10-13T11:40:15;8.90;;;2.85;;
43901;SDS011;29562;40.390;-3.706;2022-10-13T12:00:22;8.88;;;3.58;;
43901;SDS011;29562;40.390;-3.706;2022-10-13T12:10:28;8.20;;;3.50;;
43901;SDS011;29562;40.390;-3.706;2022-10-13T12:20:31;9.97;;;3.47;;
43901;SDS011;29562;40.390;-3.706;2022-10-13T12:30:33;9.30;;;3.60;;
43901;SDS011;29562;40.390;-3.706;2022-10-13T12:40:36;7.65;;;3.22;;
43901;SDS011;29562;40.390;-3.706;2022-10-13T12:50:39;9.75;;;3.72;;
43901;SDS011;29562;40.390;-3.706;2022-10-13T13:00:42;6.47;;;3.15;;
43901;SDS011;29562;40.390;-3.706;2022-10-13T13:10:53;5.60;;;3.17;;
43901;SDS011;29562;40.390;-3.706;2022-10-13T13:20:55;7.43;;;3.75;;
43901;SDS011;29562;40.390;-3.706;2022-10-13T13:30:59;9.93;;;3.25;;
43901;SDS011;29562;40.390;-3.706;2022-10-13T13:41:02;7.30;;;2.55;;
43901;SDS011;29562;40.390;-3.706;2022-10-13T13:51:04;10.45;;;5.53;;
43901;SDS011;29562;40.390;-3.706;2022-10-13T14:01:06;5.28;;;1.77;;
43901;SDS011;29562;40.390;-3.706;2022-10-13T14:11:08;4.43;;;2.70;;
43901;SDS011;29562;40.390;-3.706;2022-10-13T14:21:11;6.00;;;1.90;;
43901;SDS011;29562;40.390;-3.706;2022-10-13T14:31:13;4.63;;;1.73;;
43901;SDS011;29562;40.390;-3.706;2022-10-13T14:41:15;5.72;;;2.22;;
43901;SDS011;29562;40.390;-3.706;2022-10-13T14:51:17;3.08;;;1.60;;
43901;SDS011;29562;40.390;-3.706;2022-10-13T15:01:19;3.88;;;1.40;;
43901;SDS011;29562;40.390;-3.706;2022-10-13T15:11:22;2.92;;;1.63;;
43901;SDS011;29562;40.390;-3.706;2022-10-13T15:21:24;3.30;;;1.35;;
43901;SDS011;29562;40.390;-3.706;2022-10-13T15:31:27;2.47;;;1.30;;
43901;SDS011;29562;40.390;-3.706;2022-10-13T15:41:31;4.40;;;2.20;;
43901;SDS011;29562;40.390;-3.706;2022-10-13T15:51:33;5.07;;;1.50;;
43901;SDS011;29562;40.390;-3.706;2022-10-13T16:01:35;6.53;;;1.52;;
43901;SDS011;29562;40.390;-3.706;2022-10-13T16:11:37;3.13;;;1.40;;
43901;SDS011;29562;40.390;-3.706;2022-10-13T16:21:40;4.15;;;1.40;;
43901;SDS011;29562;40.390;-3.706;2022-10-13T16:31:42;12.80;;;4.03;;
43901;SDS011;29562;40.390;-3.706;2022-10-13T16:41:45;7.97;;;2.55;;
43901;SDS011;29562;40.390;-3.706;2022-10-13T16:51:47;10.40;;;3.83;;
43901;SDS011;29562;40.390;-3.706;2022-10-13T17:01:49;5.53;;;3.35;;
43901;SDS011;29562;40.390;-3.706;2022-10-13T17:11:51;7.30;;;3.13;;
43901;SDS011;29562;40.390;-3.706;2022-10-13T17:21:53;6.93;;;3.72;;
43901;SDS011;29562;40.390;-3.706;2022-10-13T17:31:55;11.07;;;5.53;;
43901;SDS011;29562;40.390;-3.706;2022-10-13T17:41:57;9.52;;;4.47;;
43901;SDS011;29562;40.390;-3.706;2022-10-13T17:51:59;6.00;;;3.25;;
43901;SDS011;29562;40.390;-3.706;2022-10-13T18:02:01;6.53;;;4.07;;
43901;SDS011;29562;40.390;-3.706;2022-10-13T18:12:03;20.40;;;10.38;;
43901;SDS011;29562;40.390;-3.706;2022-10-13T18:22:05;15.65;;;10.23;;
43901;SDS011;29562;40.390;-3.706;2022-10-13T18:32:07;8.73;;;5.03;;
43901;SDS011;29562;40.390;-3.706;2022-10-13T18:42:09;7.60;;;4.57;;
43901;SDS011;29562;40.390;-3.706;2022-10-13T18:52:11;8.63;;;3.47;;
43901;SDS011;29562;40.390;-3.706;2022-10-13T19:02:13;8.52;;;2.92;;
43901;SDS011;29562;40.390;-3.706;2022-10-13T19:12:15;6.07;;;3.35;;
43901;SDS011;29562;40.390;-3.706;2022-10-13T19:22:17;5.05;;;3.00;;
43901;SDS011;29562;40.390;-3.706;2022-10-13T19:32:19;5.68;;;3.33;;
43901;SDS011;29562;40.390;-3.706;2022-10-13T19:42:21;6.20;;;3.10;;
43901;SDS011;29562;40.390;-3.706;2022-10-13T19:52:23;7.40;;;3.47;;
43901;SDS011;29562;40.390;-3.706;2022-10-13T20:02:25;5.90;;;2.83;;
43901;SDS011;29562;40.390;-3.706;2022-10-13T20:12:28;5.72;;;2.80;;
43901;SDS011;29562;40.390;-3.706;2022-10-13T20:22:30;6.13;;;2.10;;
43901;SDS011;29562;40.390;-3.706;2022-10-13T20:32:33;5.78;;;3.58;;
43901;SDS011;29562;40.390;-3.706;2022-10-13T20:42:36;7.82;;;3.28;;
43901;SDS011;29562;40.390;-3.706;2022-10-13T20:52:38;4.90;;;3.60;;
43901;SDS011;29562;40.390;-3.706;2022-10-13T21:02:40;9.02;;;4.57;;
43901;SDS011;29562;40.390;-3.706;2022-10-13T21:12:42;8.57;;;3.22;;
43901;SDS011;29562;40.390;-3.706;2022-10-13T21:22:44;8.90;;;2.60;;
43901;SDS011;29562;40.390;-3.706;2022-10-13T21:32:47;4.00;;;2.53;;
43901;SDS011;29562;40.390;-3.706;2022-10-13T21:42:49;5.72;;;2.70;;
43901;SDS011;29562;40.390;-3.706;2022-10-13T21:52:50;4.90;;;2.92;;
43901;SDS011;29562;40.390;-3.706;2022-10-13T22:02:52;5.28;;;2.90;;
43901;SDS011;29562;40.390;-3.706;2022-10-13T22:12:55;11.20;;;4.00;;
43901;SDS011;29562;40.390;-3.706;2022-10-13T22:22:57;6.60;;;2.80;;
43901;SDS011;29562;40.390;-3.706;2022-10-13T22:32:59;6.63;;;2.40;;
43901;SDS011;29562;40.390;-3.706;2022-10-13T22:43:01;6.53;;;2.80;;
43901;SDS011;29562;40.390;-3.706;2022-10-13T22:53:03;5.93;;;2.42;;
43901;SDS011;29562;40.390;-3.706;2022-10-13T23:03:05;5.05;;;2.65;;
43901;SDS011;29562;40.390;-3.706;2022-10-13T23:13:07;5.55;;;2.25;;
43901;SDS011;29562;40.390;-3.706;2022-10-13T23:23:09;5.47;;;3.00;;
43901;SDS011;29562;40.390;-3.706;2022-10-13T23:33:11;5.13;;;2.28;;
43901;SDS011;29562;40.390;-3.706;2022-10-13T23:43:13;3.92;;;2.63;;
43901;SDS011;29562;40.390;-3.706;2022-10-13T23:53:15;8.63;;;3.30;;
